Terminal Aerodrome Forecast
Issued by NWS Twin Cities, MN

Home | Current Version | Previous Version | Text Only | Print | Product List | Glossary On
Versions: 1 2 3 4 5 6 7 8 9 10 11 12 13 14 15 16 17 18 19 20 21 22 23 24 25 26 27 28
058
FTUS43 KMPX 232346
TAFMSP
TAF
KMSP 232346Z 2400/2506 32017G28KT P6SM OVC035
     FM240600 32020G35KT P6SM BKN035
     FM241400 32021G35KT P6SM SCT035 BKN050
     FM242200 31015G25KT P6SM FEW250
     FM250300 30011G17KT P6SM FEW250=

USA.gov is the U.S. government's official web portal to all federal, state and local government web resources and services.